createdAt,value
2017-09-16T00:01:03.064Z,11.67
2017-09-16T00:03:30.686Z,11.76
2017-09-16T00:05:58.297Z,11.79
2017-09-16T00:08:25.934Z,11.83
2017-09-16T00:10:53.522Z,11.74
2017-09-16T00:13:21.283Z,11.72
2017-09-16T00:15:48.887Z,11.59
2017-09-16T00:18:16.518Z,11.50
2017-09-16T00:20:44.103Z,11.45
2017-09-16T00:23:11.718Z,11.49
2017-09-16T00:25:39.463Z,11.35
2017-09-16T00:28:07.086Z,11.28
2017-09-16T00:30:34.687Z,11.40
2017-09-16T00:33:02.311Z,11.49
2017-09-16T00:35:30.054Z,11.56
2017-09-16T00:37:57.870Z,11.63
2017-09-16T00:40:25.470Z,11.52
2017-09-16T00:42:53.099Z,11.49
2017-09-16T00:45:20.709Z,11.33
2017-09-16T00:47:48.328Z,11.15
2017-09-16T00:50:15.970Z,11.07
2017-09-16T00:52:43.584Z,11.02
2017-09-16T00:55:11.179Z,10.85
2017-09-16T00:57:38.811Z,10.84
2017-09-16T01:00:06.554Z,10.88
2017-09-16T01:02:34.187Z,10.87
2017-09-16T01:05:01.882Z,10.86
2017-09-16T01:07:29.498Z,10.93
2017-09-16T01:09:57.098Z,10.85
2017-09-16T01:12:24.705Z,10.71
2017-09-16T01:14:52.331Z,10.80
2017-09-16T01:17:19.919Z,10.96
2017-09-16T01:19:47.544Z,11.08
2017-09-16T01:22:15.160Z,11.05
2017-09-16T01:24:42.784Z,10.95
2017-09-16T01:27:10.410Z,10.92
2017-09-16T01:29:38.020Z,10.90
2017-09-16T01:32:05.685Z,10.99
2017-09-16T01:34:33.314Z,11.08
2017-09-16T01:37:00.888Z,11.16
2017-09-16T01:39:28.503Z,11.21
2017-09-16T01:41:56.103Z,11.26
2017-09-16T01:44:23.714Z,11.23
2017-09-16T01:46:51.314Z,10.98
2017-09-16T01:49:18.943Z,10.86
2017-09-16T01:51:46.540Z,10.77
2017-09-16T01:54:14.143Z,10.78
2017-09-16T01:56:41.778Z,10.91
2017-09-16T01:59:09.361Z,10.96
2017-09-16T02:01:36.999Z,10.86
2017-09-16T02:04:04.606Z,10.70
2017-09-16T02:06:32.270Z,10.74
2017-09-16T02:08:59.879Z,10.78
2017-09-16T02:11:27.499Z,10.92
2017-09-16T02:13:55.271Z,10.92
2017-09-16T02:16:23.019Z,10.90
2017-09-16T02:18:50.622Z,10.89
2017-09-16T02:21:18.251Z,10.94
2017-09-16T02:23:45.846Z,10.79
2017-09-16T02:26:13.482Z,10.71
2017-09-16T02:28:41.067Z,10.78
2017-09-16T02:31:08.683Z,10.90
2017-09-16T02:33:36.280Z,10.99
2017-09-16T02:36:03.899Z,11.01
2017-09-16T02:38:31.513Z,11.05
2017-09-16T02:40:59.135Z,10.97
2017-09-16T02:43:26.727Z,10.92
2017-09-16T02:45:54.537Z,10.92
2017-09-16T02:48:22.142Z,11.00
2017-09-16T02:50:49.730Z,10.99
2017-09-16T02:53:17.347Z,11.02
2017-09-16T02:55:44.938Z,11.12
2017-09-16T02:58:12.638Z,11.07
2017-09-16T03:00:40.227Z,10.98
2017-09-16T03:03:07.891Z,10.96
2017-09-16T03:05:35.540Z,10.99
2017-09-16T03:08:03.180Z,11.00
2017-09-16T03:10:30.865Z,10.96
2017-09-16T03:12:58.538Z,10.95
2017-09-16T03:15:26.239Z,10.81
2017-09-16T03:17:53.953Z,10.85
2017-09-16T03:20:21.547Z,10.87
2017-09-16T03:22:49.187Z,10.88
2017-09-16T03:25:16.889Z,10.71
2017-09-16T03:27:44.538Z,10.55
2017-09-16T03:30:12.183Z,10.49
2017-09-16T03:32:39.770Z,10.54
2017-09-16T03:35:07.395Z,10.61
2017-09-16T03:37:35.042Z,10.67
2017-09-16T03:40:02.860Z,10.70
2017-09-16T03:42:30.533Z,10.78
2017-09-16T03:44:58.179Z,10.81
2017-09-16T03:47:25.849Z,10.84
2017-09-16T03:49:53.579Z,10.74
2017-09-16T03:52:21.252Z,10.54
2017-09-16T03:54:49.023Z,10.36
2017-09-16T03:57:16.674Z,10.36
2017-09-16T03:59:44.355Z,10.31
2017-09-16T04:02:23.755Z,10.44
2017-09-16T04:04:51.455Z,10.58
2017-09-16T04:07:19.077Z,10.66
2017-09-16T04:09:46.730Z,10.65
2017-09-16T04:12:14.349Z,10.70
2017-09-16T04:14:42.114Z,10.75
2017-09-16T04:17:09.706Z,10.82
2017-09-16T04:19:37.375Z,10.82
2017-09-16T04:22:04.985Z,10.86
2017-09-16T04:24:32.944Z,10.93
2017-09-16T04:27:00.543Z,10.98
2017-09-16T04:29:28.151Z,10.97
2017-09-16T04:31:55.817Z,10.96
2017-09-16T04:34:23.856Z,10.96
2017-09-16T04:36:52.485Z,10.96
2017-09-16T04:39:20.201Z,10.93
2017-09-16T04:41:48.130Z,10.90
2017-09-16T04:44:16.591Z,10.86
2017-09-16T04:46:44.369Z,10.85
2017-09-16T04:49:12.156Z,10.79
2017-09-16T04:51:40.195Z,10.81
2017-09-16T04:54:07.965Z,10.86
2017-09-16T04:56:35.681Z,10.82
2017-09-16T04:59:04.054Z,10.82
2017-09-16T05:01:31.723Z,10.81
2017-09-16T05:04:00.137Z,10.81
2017-09-16T05:06:28.031Z,10.84
2017-09-16T05:08:55.664Z,10.78
2017-09-16T05:11:24.216Z,10.74
2017-09-16T05:13:51.916Z,10.79
2017-09-16T05:16:20.248Z,10.73
2017-09-16T05:18:47.908Z,10.64
2017-09-16T05:21:15.942Z,10.58
2017-09-16T05:23:45.835Z,10.55
2017-09-16T05:26:13.631Z,10.53
2017-09-16T05:28:41.536Z,10.53
2017-09-16T05:31:10.099Z,10.57
2017-09-16T05:33:37.748Z,10.57
2017-09-16T05:36:05.425Z,10.62
2017-09-16T05:38:33.112Z,10.66
2017-09-16T05:41:01.576Z,10.70
2017-09-16T05:43:29.216Z,10.73
2017-09-16T05:45:56.971Z,10.70
2017-09-16T05:48:26.014Z,10.70
2017-09-16T05:50:54.622Z,10.69
2017-09-16T05:53:23.396Z,10.64
2017-09-16T05:55:51.174Z,10.63
2017-09-16T05:58:20.519Z,10.63
2017-09-16T06:00:48.268Z,10.66
2017-09-16T06:03:16.285Z,10.55
2017-09-16T06:05:44.820Z,10.49
2017-09-16T06:08:12.465Z,10.30
2017-09-16T06:10:40.904Z,10.24
2017-09-16T06:13:08.567Z,10.22
2017-09-16T06:15:36.945Z,10.17
2017-09-16T06:18:05.339Z,10.13
2017-09-16T06:20:32.934Z,10.17
2017-09-16T06:23:00.587Z,10.20
2017-09-16T06:25:28.182Z,10.21
2017-09-16T06:27:55.809Z,10.26
2017-09-16T06:30:23.407Z,10.25
2017-09-16T06:32:51.028Z,10.28
2017-09-16T06:35:18.624Z,10.32
2017-09-16T06:37:46.324Z,10.44
2017-09-16T06:40:13.928Z,10.52
2017-09-16T06:42:41.542Z,10.65
2017-09-16T06:45:09.158Z,10.71
2017-09-16T06:47:36.787Z,10.76
2017-09-16T06:50:04.616Z,10.79
2017-09-16T06:52:32.403Z,10.81
2017-09-16T06:55:00.034Z,10.81
2017-09-16T06:57:27.659Z,10.79
2017-09-16T06:59:55.284Z,10.85
2017-09-16T07:02:22.974Z,10.81
2017-09-16T07:04:50.564Z,10.82
2017-09-16T07:07:18.264Z,10.88
2017-09-16T07:09:45.886Z,10.90
2017-09-16T07:12:13.561Z,10.88
2017-09-16T07:14:41.205Z,10.97
2017-09-16T07:17:08.893Z,11.03
2017-09-16T07:19:36.651Z,11.06
2017-09-16T07:22:04.287Z,11.15
2017-09-16T07:24:31.929Z,11.22
2017-09-16T07:26:59.581Z,11.31
2017-09-16T07:29:27.359Z,11.35
2017-09-16T07:31:55.029Z,11.41
2017-09-16T07:34:22.656Z,11.47
2017-09-16T07:36:50.300Z,11.48
2017-09-16T07:39:17.986Z,11.57
2017-09-16T07:41:45.656Z,11.58
2017-09-16T07:44:13.336Z,11.61
2017-09-16T07:46:40.972Z,11.67
2017-09-16T07:49:08.663Z,11.76
2017-09-16T07:51:36.302Z,11.88
2017-09-16T07:54:03.898Z,11.92
2017-09-16T07:56:31.530Z,11.95
2017-09-16T07:58:59.152Z,12.04
2017-09-16T08:01:26.747Z,12.12
2017-09-16T08:03:54.380Z,12.18
2017-09-16T08:06:21.972Z,12.28
2017-09-16T08:08:49.595Z,12.32
2017-09-16T08:11:19.036Z,12.40
2017-09-16T08:13:46.651Z,12.49
2017-09-16T08:16:14.276Z,12.50
2017-09-16T08:18:42.043Z,12.58
2017-09-16T08:21:09.637Z,12.62
2017-09-16T08:23:37.255Z,12.68
2017-09-16T08:26:04.854Z,12.73
2017-09-16T08:28:32.498Z,12.82
2017-09-16T08:31:00.461Z,12.88
2017-09-16T08:33:28.140Z,12.86
2017-09-16T08:35:55.990Z,12.94
2017-09-16T08:38:23.682Z,13.00
2017-09-16T08:40:51.402Z,13.08
2017-09-16T08:43:19.067Z,13.15
2017-09-16T08:45:47.264Z,13.24
2017-09-16T08:48:14.868Z,13.32
2017-09-16T08:50:42.521Z,13.39
2017-09-16T08:53:10.132Z,13.42
2017-09-16T08:55:37.791Z,13.43
2017-09-16T08:58:05.407Z,13.43
2017-09-16T09:00:33.039Z,13.50
2017-09-16T09:03:00.645Z,13.61
2017-09-16T09:05:28.603Z,13.69
2017-09-16T09:07:56.613Z,13.83
2017-09-16T09:10:24.481Z,13.97
2017-09-16T09:12:52.256Z,14.03
2017-09-16T09:15:20.065Z,14.05
2017-09-16T09:17:47.835Z,14.11
2017-09-16T09:20:15.555Z,14.25
2017-09-16T09:22:43.301Z,14.39
2017-09-16T09:25:11.128Z,14.59
2017-09-16T09:27:39.003Z,14.87
2017-09-16T09:30:06.829Z,14.95
2017-09-16T09:32:34.686Z,14.84
2017-09-16T09:35:02.387Z,14.65
2017-09-16T09:37:30.003Z,14.60
2017-09-16T09:39:57.674Z,14.72
2017-09-16T09:42:25.278Z,15.01
2017-09-16T09:44:52.946Z,15.24
2017-09-16T09:47:20.571Z,15.22
2017-09-16T09:49:48.196Z,15.07
2017-09-16T09:52:15.826Z,14.95
2017-09-16T09:54:43.448Z,14.97
2017-09-16T09:57:11.057Z,15.26
2017-09-16T09:59:38.683Z,15.34
2017-09-16T10:02:06.290Z,15.45
2017-09-16T10:04:33.930Z,15.60
2017-09-16T10:07:01.553Z,15.67
2017-09-16T10:09:29.223Z,15.64
2017-09-16T10:11:57.143Z,15.66
2017-09-16T10:14:24.959Z,15.90
2017-09-16T10:16:52.739Z,15.86
2017-09-16T10:19:20.441Z,15.98
2017-09-16T10:21:48.508Z,15.81
2017-09-16T10:24:16.492Z,15.93
2017-09-16T10:26:44.182Z,15.89
2017-09-16T10:29:13.030Z,16.29
2017-09-16T10:31:41.144Z,16.33
2017-09-16T10:34:09.075Z,16.59
2017-09-16T10:36:36.703Z,17.01
2017-09-16T10:39:04.503Z,17.28
2017-09-16T10:41:32.179Z,16.79
2017-09-16T10:43:59.788Z,16.52
2017-09-16T10:46:27.442Z,16.33
2017-09-16T10:48:55.100Z,16.64
2017-09-16T10:51:22.894Z,17.04
2017-09-16T10:53:50.506Z,17.46
2017-09-16T10:56:18.324Z,17.48
2017-09-16T10:58:46.066Z,17.78
2017-09-16T11:01:13.695Z,17.86
2017-09-16T11:03:41.288Z,17.17
2017-09-16T11:06:08.922Z,16.70
2017-09-16T11:08:36.782Z,16.83
2017-09-16T11:11:04.466Z,17.18
2017-09-16T11:13:32.058Z,17.51
2017-09-16T11:15:59.691Z,17.54
2017-09-16T11:18:27.301Z,17.39
2017-09-16T11:20:54.939Z,17.03
2017-09-16T11:23:22.881Z,16.75
2017-09-16T11:25:50.510Z,16.58
2017-09-16T11:28:18.131Z,16.42
2017-09-16T11:30:45.749Z,16.40
2017-09-16T11:33:13.389Z,17.06
2017-09-16T11:35:41.024Z,17.39
2017-09-16T11:38:08.642Z,17.75
2017-09-16T11:40:36.239Z,18.28
2017-09-16T11:43:03.891Z,18.38
2017-09-16T11:45:31.494Z,18.61
2017-09-16T11:47:59.142Z,19.01
2017-09-16T11:50:26.759Z,19.60
2017-09-16T11:52:54.429Z,19.57
2017-09-16T11:55:22.044Z,18.92
2017-09-16T11:57:49.662Z,18.42
2017-09-16T12:00:17.278Z,18.14
2017-09-16T12:02:44.927Z,17.94
2017-09-16T12:05:12.554Z,17.80
2017-09-16T12:07:40.187Z,17.63
2017-09-16T12:10:07.831Z,17.59
2017-09-16T12:12:35.463Z,17.68
2017-09-16T12:15:03.053Z,18.05
2017-09-16T12:17:30.702Z,18.61
2017-09-16T12:19:58.330Z,18.49
2017-09-16T12:22:25.974Z,18.71
2017-09-16T12:24:53.578Z,18.61
2017-09-16T12:27:21.162Z,18.33
2017-09-16T12:29:48.791Z,18.13
2017-09-16T12:32:16.395Z,17.71
2017-09-16T12:34:44.021Z,17.48
2017-09-16T12:37:11.671Z,17.34
2017-09-16T12:39:39.294Z,17.29
2017-09-16T12:42:06.888Z,17.27
2017-09-16T12:44:34.522Z,17.28
2017-09-16T12:47:02.114Z,17.27
2017-09-16T12:49:29.775Z,17.27
2017-09-16T12:51:57.371Z,17.34
2017-09-16T12:54:25.034Z,17.56
2017-09-16T12:56:52.741Z,17.74
2017-09-16T12:59:20.427Z,18.54
2017-09-16T13:01:48.054Z,19.38
2017-09-16T13:04:15.807Z,19.99
2017-09-16T13:06:44.434Z,20.42
2017-09-16T13:09:12.087Z,20.72
2017-09-16T13:11:39.767Z,20.49
2017-09-16T13:14:07.430Z,20.44
2017-09-16T13:16:35.057Z,20.41
2017-09-16T13:19:02.725Z,20.69
2017-09-16T13:21:30.330Z,20.55
2017-09-16T13:23:57.955Z,20.56
2017-09-16T13:26:25.570Z,19.82
2017-09-16T13:28:53.207Z,20.12
2017-09-16T13:31:20.820Z,20.00
2017-09-16T13:33:48.434Z,20.07
2017-09-16T13:36:16.103Z,19.60
2017-09-16T13:38:43.827Z,19.34
2017-09-16T13:41:11.515Z,19.61
2017-09-16T13:43:39.245Z,19.59
2017-09-16T13:46:06.940Z,19.26
2017-09-16T13:48:34.586Z,18.83
2017-09-16T13:51:02.261Z,18.83
2017-09-16T13:53:29.938Z,18.93
2017-09-16T13:55:57.684Z,19.33
2017-09-16T13:58:26.315Z,19.62
2017-09-16T14:00:53.967Z,19.92
2017-09-16T14:03:21.570Z,19.54
2017-09-16T14:05:49.228Z,19.17
2017-09-16T14:08:16.838Z,18.81
2017-09-16T14:10:44.656Z,18.66
2017-09-16T14:13:12.251Z,18.67
2017-09-16T14:15:39.887Z,18.73
2017-09-16T14:18:07.492Z,19.44
2017-09-16T14:20:35.142Z,20.52
2017-09-16T14:23:02.738Z,21.31
2017-09-16T14:25:30.431Z,21.22
2017-09-16T14:27:58.048Z,21.08
2017-09-16T14:30:25.679Z,20.81
2017-09-16T14:32:53.365Z,20.66
2017-09-16T14:35:21.053Z,20.35
2017-09-16T14:37:48.670Z,20.84
2017-09-16T14:40:16.326Z,21.28
2017-09-16T14:42:43.983Z,20.69
2017-09-16T14:45:11.609Z,20.09
2017-09-16T14:47:39.428Z,20.02
2017-09-16T14:50:07.042Z,19.69
2017-09-16T14:52:34.677Z,19.18
2017-09-16T14:55:02.285Z,19.01
2017-09-16T14:57:29.942Z,18.64
2017-09-16T14:59:57.608Z,18.50
2017-09-16T15:02:26.076Z,18.40
2017-09-16T15:04:54.422Z,18.30
2017-09-16T15:07:22.083Z,18.32
2017-09-16T15:09:49.704Z,18.33
2017-09-16T15:12:17.998Z,18.27
2017-09-16T15:14:46.151Z,18.23
2017-09-16T15:17:13.884Z,18.07
2017-09-16T15:19:42.213Z,18.01
2017-09-16T15:22:10.548Z,17.89
2017-09-16T15:24:39.900Z,17.81
2017-09-16T15:27:07.570Z,17.74
2017-09-16T15:29:35.202Z,17.66
2017-09-16T15:32:02.926Z,17.56
2017-09-16T15:34:30.562Z,17.55
2017-09-16T15:36:58.331Z,17.47
2017-09-16T15:39:26.038Z,17.32
2017-09-16T15:41:54.380Z,17.01
2017-09-16T15:44:23.472Z,16.64
2017-09-16T15:46:51.225Z,16.36
2017-09-16T15:49:18.888Z,16.20
2017-09-16T15:51:46.536Z,16.03
2017-09-16T15:54:14.155Z,15.87
2017-09-16T15:56:42.148Z,15.72
2017-09-16T15:59:10.555Z,15.60
2017-09-16T16:01:39.192Z,15.63
2017-09-16T16:04:06.842Z,15.62
2017-09-16T16:06:34.472Z,15.54
2017-09-16T16:09:02.138Z,15.43
2017-09-16T16:11:29.855Z,15.38
2017-09-16T16:13:58.330Z,15.39
2017-09-16T16:16:25.972Z,15.24
2017-09-16T16:18:53.647Z,15.21
2017-09-16T16:21:21.302Z,15.07
2017-09-16T16:23:48.945Z,15.21
2017-09-16T16:26:16.604Z,15.30
2017-09-16T16:28:44.292Z,15.28
2017-09-16T16:31:12.844Z,15.10
2017-09-16T16:33:40.984Z,15.06
2017-09-16T16:36:08.620Z,15.12
2017-09-16T16:38:36.354Z,15.25
2017-09-16T16:41:04.023Z,15.34
2017-09-16T16:43:31.704Z,15.46
2017-09-16T16:45:59.328Z,15.52
2017-09-16T16:48:27.652Z,15.41
2017-09-16T16:50:55.248Z,15.28
2017-09-16T16:53:23.636Z,15.31
2017-09-16T16:55:52.119Z,15.47
2017-09-16T16:58:20.586Z,15.73
2017-09-16T17:00:48.253Z,15.90
2017-09-16T17:03:17.167Z,15.94
2017-09-16T17:05:44.800Z,15.74
2017-09-16T17:08:12.485Z,15.63
2017-09-16T17:10:40.100Z,15.44
2017-09-16T17:13:07.817Z,15.37
2017-09-16T17:15:35.460Z,15.32
2017-09-16T17:18:03.806Z,15.35
2017-09-16T17:20:31.684Z,15.27
2017-09-16T17:23:00.245Z,15.15
2017-09-16T17:25:28.559Z,15.22
2017-09-16T17:27:56.541Z,15.31
2017-09-16T17:30:24.270Z,15.35
2017-09-16T17:32:51.933Z,15.31
2017-09-16T17:35:19.772Z,15.23
2017-09-16T17:37:47.424Z,15.17
2017-09-16T17:40:15.164Z,14.97
2017-09-16T17:42:43.219Z,14.85
2017-09-16T17:45:10.931Z,14.74
2017-09-16T17:47:40.150Z,14.62
2017-09-16T17:50:08.573Z,14.57
2017-09-16T17:52:36.300Z,14.62
2017-09-16T17:55:04.652Z,14.58
2017-09-16T17:57:32.320Z,14.54
2017-09-16T17:59:59.986Z,14.51
2017-09-16T18:02:27.628Z,14.40
2017-09-16T18:04:57.328Z,14.32
2017-09-16T18:07:25.621Z,14.29
2017-09-16T18:09:53.410Z,14.31
2017-09-16T18:12:24.617Z,14.23
2017-09-16T18:14:53.130Z,14.15
2017-09-16T18:17:20.750Z,14.08
2017-09-16T18:19:48.867Z,14.00
2017-09-16T18:22:17.254Z,13.78
2017-09-16T18:24:45.448Z,13.69
2017-09-16T18:27:13.502Z,13.70
2017-09-16T18:29:42.307Z,13.68
2017-09-16T18:32:10.192Z,13.60
2017-09-16T18:34:38.473Z,13.65
2017-09-16T18:37:06.807Z,13.66
2017-09-16T18:39:34.610Z,13.64
2017-09-16T18:42:02.287Z,13.57
2017-09-16T18:44:30.691Z,13.51
2017-09-16T18:46:58.378Z,13.43
2017-09-16T18:49:26.047Z,13.43
2017-09-16T18:51:54.005Z,13.47
2017-09-16T18:54:21.696Z,13.53
2017-09-16T18:56:49.387Z,13.46
2017-09-16T18:59:17.113Z,13.41
2017-09-16T19:01:44.967Z,13.42
2017-09-16T19:04:12.717Z,13.41
2017-09-16T19:06:40.388Z,13.43
2017-09-16T19:09:08.589Z,13.43
2017-09-16T19:11:36.222Z,13.37
2017-09-16T19:14:04.687Z,13.44
2017-09-16T19:16:32.388Z,13.49
2017-09-16T19:19:01.042Z,13.39
2017-09-16T19:21:29.603Z,13.41
2017-09-16T19:23:57.295Z,13.39
2017-09-16T19:26:25.662Z,13.41
2017-09-16T19:28:54.513Z,13.44
2017-09-16T19:31:22.201Z,13.45
2017-09-16T19:33:50.206Z,13.43
2017-09-16T19:36:17.905Z,13.39
2017-09-16T19:38:45.651Z,13.40
2017-09-16T19:41:13.328Z,13.26
2017-09-16T19:43:41.712Z,13.31
2017-09-16T19:46:09.369Z,13.34
2017-09-16T19:48:37.778Z,13.38
2017-09-16T19:51:05.481Z,13.33
2017-09-16T19:53:33.223Z,13.28
2017-09-16T19:56:00.971Z,13.30
2017-09-16T19:58:29.024Z,13.29
2017-09-16T20:00:57.520Z,13.25
2017-09-16T20:03:25.478Z,13.20
2017-09-16T20:05:53.132Z,13.11
2017-09-16T20:08:20.786Z,13.10
2017-09-16T20:10:48.442Z,13.19
2017-09-16T20:13:16.121Z,13.22
2017-09-16T20:15:44.544Z,13.31
2017-09-16T20:18:13.182Z,13.36
2017-09-16T20:20:40.890Z,13.44
2017-09-16T20:23:08.832Z,13.46
2017-09-16T20:25:36.510Z,13.51
2017-09-16T20:28:04.198Z,13.42
2017-09-16T20:30:32.081Z,13.54
2017-09-16T20:33:00.460Z,13.66
2017-09-16T20:35:28.184Z,13.67
2017-09-16T20:37:56.911Z,13.68
2017-09-16T20:40:24.552Z,13.68
2017-09-16T20:42:52.212Z,13.56
2017-09-16T20:45:19.853Z,13.54
2017-09-16T20:47:47.487Z,13.49
2017-09-16T20:50:16.072Z,13.52
2017-09-16T20:52:43.748Z,13.49
2017-09-16T20:55:12.528Z,13.53
2017-09-16T20:57:45.938Z,13.52
2017-09-16T21:00:16.465Z,13.48
2017-09-16T21:02:45.934Z,13.44
2017-09-16T21:05:15.167Z,13.41
2017-09-16T21:07:45.182Z,13.46
2017-09-16T21:10:12.874Z,13.49
2017-09-16T21:12:40.980Z,13.46
2017-09-16T21:15:09.268Z,13.46
2017-09-16T21:17:36.885Z,13.49
2017-09-16T21:20:04.558Z,13.54
2017-09-16T21:22:32.144Z,13.60
2017-09-16T21:24:59.785Z,13.63
2017-09-16T21:27:27.424Z,13.55
2017-09-16T21:29:55.090Z,13.48
2017-09-16T21:32:22.991Z,13.49
2017-09-16T21:34:50.594Z,13.50
2017-09-16T21:37:18.256Z,13.43
2017-09-16T21:39:45.877Z,13.47
2017-09-16T21:42:13.537Z,13.46
2017-09-16T21:44:41.164Z,13.49
2017-09-16T21:47:08.836Z,13.45
2017-09-16T21:49:36.534Z,13.29
2017-09-16T21:52:04.189Z,13.24
2017-09-16T21:54:31.819Z,13.40
2017-09-16T21:56:59.484Z,13.40
2017-09-16T21:59:27.170Z,13.53
2017-09-16T22:01:55.558Z,13.72
2017-09-16T22:04:23.241Z,13.62
2017-09-16T22:06:50.942Z,13.31
2017-09-16T22:09:19.337Z,13.21
2017-09-16T22:11:47.075Z,13.04
2017-09-16T22:14:15.443Z,12.92
2017-09-16T22:16:43.122Z,12.86
2017-09-16T22:19:11.785Z,12.87
2017-09-16T22:21:39.497Z,12.92
2017-09-16T22:24:07.432Z,13.29
2017-09-16T22:26:35.458Z,13.70
2017-09-16T22:29:03.100Z,13.84
2017-09-16T22:31:31.450Z,14.06
2017-09-16T22:34:00.071Z,14.19
2017-09-16T22:36:27.769Z,13.98
2017-09-16T22:38:55.379Z,13.81
2017-09-16T22:41:23.035Z,13.57
2017-09-16T22:43:50.687Z,13.32
2017-09-16T22:46:18.816Z,13.21
2017-09-16T22:48:46.705Z,13.17
2017-09-16T22:51:14.401Z,12.99
2017-09-16T22:53:42.061Z,12.85
2017-09-16T22:56:09.808Z,12.76
2017-09-16T22:58:37.484Z,12.77
2017-09-16T23:01:05.192Z,12.77
2017-09-16T23:03:32.927Z,12.69
2017-09-16T23:06:00.634Z,12.60
2017-09-16T23:08:28.246Z,12.68
2017-09-16T23:10:55.922Z,12.69
2017-09-16T23:13:24.376Z,12.71
2017-09-16T23:15:51.976Z,12.76
2017-09-16T23:18:19.673Z,12.73
2017-09-16T23:20:47.976Z,12.70
2017-09-16T23:23:16.509Z,12.54
2017-09-16T23:25:44.981Z,12.38
2017-09-16T23:28:12.628Z,12.40
2017-09-16T23:30:41.207Z,12.38
2017-09-16T23:33:09.579Z,12.33
2017-09-16T23:35:38.525Z,12.36
2017-09-16T23:38:06.796Z,12.31
2017-09-16T23:40:34.440Z,12.21
2017-09-16T23:43:02.095Z,12.23
2017-09-16T23:45:29.726Z,12.16
2017-09-16T23:47:58.069Z,12.17
2017-09-16T23:50:26.351Z,12.16
2017-09-16T23:52:54.722Z,12.05
2017-09-16T23:55:23.385Z,12.06
2017-09-16T23:57:51.000Z,12.13
